Time;durP1;ratioP1;P1;durP2;ratioP2;P2;SDS_P1;SDS_P2;PMS_P1;PMS_P2;Temp;Humidity;BMP_temperature;BMP_pressure;BME280_temperature;BME280_humidity;BME280_pressure;Samples;Min_cycle;Max_cycle;Signal;HPM_P1;HPM_P2
2023/12/31 00:02:17;;;;;;;5.00;4.50;;;;;;;;;;5073264;28;20530;-61
2023/12/31 00:04:44;;;;;;;6.20;4.67;;;;;;;;;;5073089;28;20534;-61
2023/12/31 00:07:11;;;;;;;5.00;4.30;;;;;;;;;;5073380;28;20534;-61
2023/12/31 00:09:40;;;;;;;6.33;4.70;;;;;;;;;;5073515;28;20440;-61
2023/12/31 00:12:07;;;;;;;7.63;4.20;;;;;;;;;;5073300;28;21025;-62
2023/12/31 00:14:34;;;;;;;5.20;4.33;;;;;;;;;;5073128;28;20471;-61
2023/12/31 00:17:01;;;;;;;5.23;3.70;;;;;;;;;;5073055;28;20569;-61
2023/12/31 00:19:28;;;;;;;3.53;3.33;;;;;;;;;;5072999;28;20530;-62
2023/12/31 00:21:55;;;;;;;4.10;3.70;;;;;;;;;;5073152;28;20534;-61
2023/12/31 00:24:21;;;;;;;5.10;3.90;;;;;;;;;;5073118;28;20523;-61
2023/12/31 00:26:50;;;;;;;5.53;4.17;;;;;;;;;;5073014;28;20882;-61
2023/12/31 00:29:17;;;;;;;7.27;3.90;;;;;;;;;;5072984;28;20446;-61
2023/12/31 00:31:44;;;;;;;6.30;3.83;;;;;;;;;;5073299;28;20435;-61
2023/12/31 00:34:11;;;;;;;6.13;3.53;;;;;;;;;;5073303;28;20439;-62
2023/12/31 00:36:38;;;;;;;6.30;3.10;;;;;;;;;;5073169;28;20483;-61
2023/12/31 00:39:05;;;;;;;6.40;4.10;;;;;;;;;;5073166;28;20443;-62
2023/12/31 00:41:32;;;;;;;4.47;3.43;;;;;;;;;;5072936;28;20538;-61
2023/12/31 00:44:00;;;;;;;8.63;4.13;;;;;;;;;;5072798;28;20538;-62
2023/12/31 00:46:27;;;;;;;4.07;3.73;;;;;;;;;;5072759;28;20470;-61
2023/12/31 00:48:54;;;;;;;3.43;3.13;;;;;;;;;;5072961;28;20875;-62
2023/12/31 00:51:21;;;;;;;8.67;4.20;;;;;;;;;;5072862;28;20871;-61
2023/12/31 00:53:48;;;;;;;3.67;3.37;;;;;;;;;;5072770;28;20554;-61
2023/12/31 00:56:15;;;;;;;9.50;3.70;;;;;;;;;;5072543;28;20567;-61
2023/12/31 00:58:42;;;;;;;5.40;3.20;;;;;;;;;;5072662;28;20534;-61
2023/12/31 01:01:11;;;;;;;3.80;2.93;;;;;;;;;;5072573;28;20448;-61
2023/12/31 01:03:37;;;;;;;3.93;3.33;;;;;;;;;;5072807;28;20896;-61
2023/12/31 01:06:05;;;;;;;4.40;3.17;;;;;;;;;;5072994;28;20452;-62
2023/12/31 01:08:32;;;;;;;4.90;3.40;;;;;;;;;;5072567;28;20462;-62
2023/12/31 01:10:59;;;;;;;5.37;3.57;;;;;;;;;;5072563;28;20559;-62
2023/12/31 01:13:26;;;;;;;8.93;3.30;;;;;;;;;;5072517;28;20483;-61
2023/12/31 01:15:53;;;;;;;5.30;2.73;;;;;;;;;;5072581;28;20483;-62
2023/12/31 01:18:21;;;;;;;4.80;3.10;;;;;;;;;;5072584;28;20450;-62
2023/12/31 01:20:48;;;;;;;4.93;3.40;;;;;;;;;;5072513;28;20543;-62
2023/12/31 01:23:15;;;;;;;3.10;2.90;;;;;;;;;;5072762;28;20535;-62
2023/12/31 01:25:43;;;;;;;3.67;3.37;;;;;;;;;;5072408;28;20530;-62
2023/12/31 01:28:10;;;;;;;3.20;3.00;;;;;;;;;;5072290;28;20439;-62
2023/12/31 01:30:37;;;;;;;3.60;3.40;;;;;;;;;;5072614;28;20439;-62
2023/12/31 01:33:04;;;;;;;8.30;3.17;;;;;;;;;;5072444;28;20872;-62
2023/12/31 01:35:32;;;;;;;2.73;2.53;;;;;;;;;;5072330;28;20490;-62
2023/12/31 01:37:59;;;;;;;5.97;3.37;;;;;;;;;;5072317;28;20977;-61
2023/12/31 01:40:26;;;;;;;7.80;3.63;;;;;;;;;;5072257;28;20530;-61
2023/12/31 01:42:53;;;;;;;3.20;2.90;;;;;;;;;;5072468;28;20530;-61
2023/12/31 01:45:20;;;;;;;3.67;3.10;;;;;;;;;;5074184;28;20435;-61
2023/12/31 01:47:47;;;;;;;4.33;3.50;;;;;;;;;;5075966;28;20530;-61
2023/12/31 01:50:15;;;;;;;4.00;3.27;;;;;;;;;;5075717;28;20981;-61
2023/12/31 01:52:44;;;;;;;4.43;3.03;;;;;;;;;;5075824;28;20443;-61
2023/12/31 01:55:13;;;;;;;6.17;3.80;;;;;;;;;;5075383;28;20564;-61
2023/12/31 01:57:40;;;;;;;3.23;2.87;;;;;;;;;;5075566;28;21009;-61
2023/12/31 02:00:08;;;;;;;4.03;3.00;;;;;;;;;;5075717;28;20482;-61
2023/12/31 02:02:35;;;;;;;3.87;2.90;;;;;;;;;;5075593;28;20811;-61
2023/12/31 02:05:02;;;;;;;3.17;2.83;;;;;;;;;;5075536;28;20458;-62
2023/12/31 02:07:29;;;;;;;4.20;2.77;;;;;;;;;;5075473;28;20479;-61
2023/12/31 02:09:57;;;;;;;3.70;2.93;;;;;;;;;;5075399;28;20530;-61
2023/12/31 02:12:24;;;;;;;4.93;3.30;;;;;;;;;;5075559;28;20530;-61
2023/12/31 02:14:51;;;;;;;6.47;2.93;;;;;;;;;;5075392;28;20539;-61
2023/12/31 02:17:18;;;;;;;2.50;2.30;;;;;;;;;;5075399;28;20454;-61
2023/12/31 02:19:45;;;;;;;4.13;2.60;;;;;;;;;;5075217;28;20530;-61
2023/12/31 02:22:12;;;;;;;7.13;3.23;;;;;;;;;;5075127;28;20886;-61
2023/12/31 02:24:43;;;;;;;3.10;2.80;;;;;;;;;;5075387;28;20446;-61
2023/12/31 02:27:12;;;;;;;3.83;2.97;;;;;;;;;;5075304;28;20457;-61
2023/12/31 02:29:39;;;;;;;4.03;3.07;;;;;;;;;;5075159;28;21006;-61
2023/12/31 02:32:06;;;;;;;2.93;2.60;;;;;;;;;;5075101;28;20443;-61
2023/12/31 02:34:33;;;;;;;6.27;3.10;;;;;;;;;;5074960;28;20526;-62
2023/12/31 02:36:59;;;;;;;4.53;2.70;;;;;;;;;;5075092;28;20838;-61
2023/12/31 02:39:27;;;;;;;3.63;3.33;;;;;;;;;;5075085;28;20449;-61
2023/12/31 02:41:54;;;;;;;3.23;3.03;;;;;;;;;;5074970;28;20455;-61
2023/12/31 02:44:22;;;;;;;6.53;3.20;;;;;;;;;;5074892;28;20522;-62
2023/12/31 02:46:49;;;;;;;8.60;2.77;;;;;;;;;;5074671;28;20998;-61
2023/12/31 02:49:16;;;;;;;3.50;2.67;;;;;;;;;;5074617;28;20479;-62
2023/12/31 02:51:43;;;;;;;3.10;2.80;;;;;;;;;;5074865;28;20447;-61
2023/12/31 02:54:09;;;;;;;7.03;3.50;;;;;;;;;;5074732;28;20447;-61
2023/12/31 02:56:40;;;;;;;2.77;2.53;;;;;;;;;;5073182;28;20491;-62
2023/12/31 02:59:07;;;;;;;3.27;3.03;;;;;;;;;;5074642;28;20474;-61
2023/12/31 03:01:35;;;;;;;4.10;3.07;;;;;;;;;;5074463;28;20541;-61
2023/12/31 03:04:02;;;;;;;3.20;2.77;;;;;;;;;;5074559;28;20451;-62
2023/12/31 03:06:30;;;;;;;6.23;2.83;;;;;;;;;;5074502;28;20876;-61
2023/12/31 03:08:59;;;;;;;3.67;3.27;;;;;;;;;;5074319;28;20935;-61
2023/12/31 03:11:25;;;;;;;4.00;3.47;;;;;;;;;;5074289;28;20455;-61
2023/12/31 03:13:52;;;;;;;8.57;3.97;;;;;;;;;;5074198;28;20444;-61
2023/12/31 03:16:19;;;;;;;4.90;3.40;;;;;;;;;;5074021;28;20491;-62
2023/12/31 03:18:48;;;;;;;4.00;2.90;;;;;;;;;;5074255;28;20439;-61
2023/12/31 03:21:16;;;;;;;7.07;3.50;;;;;;;;;;5074231;28;20440;-61
2023/12/31 03:23:43;;;;;;;3.63;3.33;;;;;;;;;;5074119;28;20440;-62
2023/12/31 03:26:09;;;;;;;3.80;3.50;;;;;;;;;;5074040;28;20446;-61
2023/12/31 03:28:37;;;;;;;3.73;3.37;;;;;;;;;;5073938;28;20878;-61
2023/12/31 03:31:04;;;;;;;4.77;3.43;;;;;;;;;;5073790;28;20794;-61
2023/12/31 03:33:31;;;;;;;6.67;3.70;;;;;;;;;;5074032;28;20853;-61
2023/12/31 03:35:59;;;;;;;4.38;3.60;;;;;;;;;;5073919;28;20479;-61
2023/12/31 03:38:26;;;;;;;5.27;3.60;;;;;;;;;;5074027;28;20197;-61
2023/12/31 03:40:53;;;;;;;6.53;3.70;;;;;;;;;;5073809;28;20939;-61
2023/12/31 03:43:20;;;;;;;4.83;3.50;;;;;;;;;;5074210;28;20451;-61
2023/12/31 03:45:47;;;;;;;5.03;3.35;;;;;;;;;;5073523;28;20542;-61
2023/12/31 03:48:14;;;;;;;4.90;3.30;;;;;;;;;;5073705;28;20197;-61
2023/12/31 03:50:41;;;;;;;3.70;3.30;;;;;;;;;;5073618;28;21008;-61
2023/12/31 03:53:10;;;;;;;6.80;3.58;;;;;;;;;;5073492;28;20275;-61
2023/12/31 03:55:36;;;;;;;4.30;3.70;;;;;;;;;;5073305;28;20221;-61
2023/12/31 03:58:05;;;;;;;4.28;3.35;;;;;;;;;;5073496;28;20189;-61
2023/12/31 04:00:32;;;;;;;4.87;3.50;;;;;;;;;;5073521;28;20280;-61
2023/12/31 04:02:59;;;;;;;8.00;4.00;;;;;;;;;;5073242;28;20951;-61
2023/12/31 04:05:26;;;;;;;3.60;3.00;;;;;;;;;;5073321;28;20479;-61
2023/12/31 04:07:53;;;;;;;3.40;3.10;;;;;;;;;;5072835;28;20534;-61
2023/12/31 04:10:21;;;;;;;6.83;3.77;;;;;;;;;;5073198;28;20447;-61
2023/12/31 04:12:48;;;;;;;4.72;3.35;;;;;;;;;;5073382;28;20535;-61
2023/12/31 04:15:15;;;;;;;4.22;3.20;;;;;;;;;;5073273;28;20220;-61
2023/12/31 04:17:42;;;;;;;4.77;2.87;;;;;;;;;;5073161;28;20307;-61
2023/12/31 04:20:10;;;;;;;3.33;2.90;;;;;;;;;;5073147;28;20534;-61
2023/12/31 04:22:37;;;;;;;4.22;3.63;;;;;;;;;;5073057;28;20486;-61
2023/12/31 04:25:04;;;;;;;6.65;4.35;;;;;;;;;;5073024;28;20285;-62
2023/12/31 04:27:35;;;;;;;4.18;3.85;;;;;;;;;;5073155;28;20193;-61
2023/12/31 04:30:02;;;;;;;4.57;3.50;;;;;;;;;;5073203;28;20235;-61
2023/12/31 04:32:29;;;;;;;3.60;3.30;;;;;;;;;;5073074;28;20530;-61
2023/12/31 04:34:56;;;;;;;4.00;3.43;;;;;;;;;;5072988;28;20530;-61
2023/12/31 04:37:23;;;;;;;6.50;3.28;;;;;;;;;;5072750;28;20483;-61
2023/12/31 04:39:49;;;;;;;5.23;2.80;;;;;;;;;;5072752;28;20189;-61
2023/12/31 04:42:16;;;;;;;3.80;3.30;;;;;;;;;;5072986;28;20901;-61
2023/12/31 04:44:45;;;;;;;3.30;2.90;;;;;;;;;;5073003;28;20562;-61
2023/12/31 04:47:12;;;;;;;5.20;3.45;;;;;;;;;;5072837;28;20280;-61
2023/12/31 04:49:39;;;;;;;8.48;2.95;;;;;;;;;;5072863;28;20278;-61
2023/12/31 04:52:06;;;;;;;3.85;2.70;;;;;;;;;;5072620;28;20280;-61
2023/12/31 04:54:33;;;;;;;3.05;2.78;;;;;;;;;;5072819;28;20615;-61
2023/12/31 04:57:00;;;;;;;4.43;2.47;;;;;;;;;;5072834;28;20318;-61
2023/12/31 04:59:27;;;;;;;4.32;2.95;;;;;;;;;;5072778;28;20241;-61
2023/12/31 05:01:55;;;;;;;3.22;2.47;;;;;;;;;;5072756;28;20280;-61
2023/12/31 05:04:22;;;;;;;2.78;2.58;;;;;;;;;;5072667;28;20189;-61
2023/12/31 05:06:49;;;;;;;3.07;2.67;;;;;;;;;;5072519;28;20272;-62
2023/12/31 05:09:16;;;;;;;6.97;2.55;;;;;;;;;;5072749;28;20475;-62
2023/12/31 05:11:43;;;;;;;3.55;3.10;;;;;;;;;;5072874;28;20284;-62
2023/12/31 05:14:10;;;;;;;3.50;2.90;;;;;;;;;;5072645;28;20276;-62
2023/12/31 05:16:36;;;;;;;4.63;3.40;;;;;;;;;;5072363;28;20227;-61
2023/12/31 05:19:05;;;;;;;5.88;3.60;;;;;;;;;;5072496;28;20534;-61
2023/12/31 05:21:32;;;;;;;3.40;3.00;;;;;;;;;;5076133;28;20196;-61
2023/12/31 05:24:00;;;;;;;4.30;3.10;;;;;;;;;;5076568;28;20189;-61
2023/12/31 05:26:26;;;;;;;9.60;3.13;;;;;;;;;;5076370;28;20293;-61
2023/12/31 05:28:53;;;;;;;5.82;2.97;;;;;;;;;;5076288;28;20807;-61
2023/12/31 05:31:21;;;;;;;3.00;2.65;;;;;;;;;;5076210;28;20275;-61
2023/12/31 05:33:48;;;;;;;3.33;2.30;;;;;;;;;;5075985;28;20714;-61
2023/12/31 05:36:16;;;;;;;3.30;2.50;;;;;;;;;;5075936;28;20230;-61
2023/12/31 05:38:43;;;;;;;3.33;2.33;;;;;;;;;;5076114;28;20191;-61
2023/12/31 05:41:10;;;;;;;6.78;2.20;;;;;;;;;;5076113;28;20538;-61
2023/12/31 05:43:36;;;;;;;3.22;2.67;;;;;;;;;;5076073;28;20552;-61
2023/12/31 05:46:03;;;;;;;6.05;4.05;;;;;;;;;;5075927;28;20410;-61
2023/12/31 05:48:30;;;;;;;15.20;10.95;;;;;;;;;;5075784;28;20706;-61
2023/12/31 05:50:57;;;;;;;11.85;8.80;;;;;;;;;;5075984;28;20190;-61
2023/12/31 05:53:25;;;;;;;7.35;6.45;;;;;;;;;;5075870;28;20219;-61
2023/12/31 05:55:52;;;;;;;7.03;4.43;;;;;;;;;;5075613;28;20227;-61
2023/12/31 05:58:19;;;;;;;7.75;3.80;;;;;;;;;;5075651;28;20303;-61
2023/12/31 06:00:46;;;;;;;4.07;3.67;;;;;;;;;;5075644;28;20189;-61
2023/12/31 06:03:13;;;;;;;6.80;3.80;;;;;;;;;;5075495;28;20284;-61
2023/12/31 06:05:40;;;;;;;5.57;3.75;;;;;;;;;;5075762;28;20193;-61
2023/12/31 06:08:07;;;;;;;4.33;3.30;;;;;;;;;;5075594;28;20260;-61
2023/12/31 06:10:35;;;;;;;3.40;3.00;;;;;;;;;;5075561;28;20534;-61
2023/12/31 06:13:02;;;;;;;5.13;3.23;;;;;;;;;;5075429;28;20454;-61
2023/12/31 06:15:30;;;;;;;8.47;2.90;;;;;;;;;;5075300;28;20471;-61
2023/12/31 06:17:57;;;;;;;3.50;3.00;;;;;;;;;;5075735;28;20476;-61
2023/12/31 06:20:23;;;;;;;3.43;3.00;;;;;;;;;;5075369;28;20444;-61
2023/12/31 06:22:50;;;;;;;4.23;3.00;;;;;;;;;;5075327;28;20450;-62
2023/12/31 06:25:17;;;;;;;4.38;3.17;;;;;;;;;;5075249;28;20810;-61
2023/12/31 06:27:45;;;;;;;4.47;2.47;;;;;;;;;;5075176;28;20193;-62
2023/12/31 06:30:13;;;;;;;3.17;2.60;;;;;;;;;;5074921;28;20443;-62
2023/12/31 06:32:39;;;;;;;4.65;2.63;;;;;;;;;;5075295;28;20873;-62
2023/12/31 06:35:07;;;;;;;7.10;2.58;;;;;;;;;;5075168;28;20216;-62
2023/12/31 06:37:34;;;;;;;2.93;2.27;;;;;;;;;;5074945;28;20278;-62
2023/12/31 06:40:01;;;;;;;4.82;3.58;;;;;;;;;;5074925;28;20444;-62
2023/12/31 06:42:27;;;;;;;7.07;4.00;;;;;;;;;;5074841;28;20228;-62
2023/12/31 06:44:56;;;;;;;3.93;3.00;;;;;;;;;;5074804;28;20439;-62
2023/12/31 06:47:23;;;;;;;3.80;3.40;;;;;;;;;;5074923;28;20451;-62
2023/12/31 06:49:51;;;;;;;3.60;2.63;;;;;;;;;;5074826;28;20534;-62
2023/12/31 06:52:18;;;;;;;3.83;2.60;;;;;;;;;;5074774;28;20439;-62
2023/12/31 06:54:45;;;;;;;7.28;3.13;;;;;;;;;;5074449;28;20474;-62
2023/12/31 06:57:12;;;;;;;5.27;3.00;;;;;;;;;;5074432;28;20584;-63
2023/12/31 06:59:39;;;;;;;4.50;3.00;;;;;;;;;;5074754;28;20479;-62
2023/12/31 07:02:07;;;;;;;6.40;2.73;;;;;;;;;;5074588;28;20443;-61
2023/12/31 07:04:34;;;;;;;3.90;2.63;;;;;;;;;;5074549;28;20807;-62
2023/12/31 07:07:01;;;;;;;3.50;3.07;;;;;;;;;;5074380;28;20453;-62
2023/12/31 07:09:29;;;;;;;5.10;2.97;;;;;;;;;;5074320;28;20881;-62
2023/12/31 07:11:56;;;;;;;3.50;2.67;;;;;;;;;;5074162;28;20440;-62
2023/12/31 07:14:24;;;;;;;2.93;2.43;;;;;;;;;;5074473;28;20470;-62
2023/12/31 07:16:51;;;;;;;5.23;2.50;;;;;;;;;;5074086;28;20525;-62
2023/12/31 07:19:20;;;;;;;4.27;3.20;;;;;;;;;;5074158;28;20444;-62
2023/12/31 07:21:48;;;;;;;4.97;2.30;;;;;;;;;;5074176;28;20958;-62
2023/12/31 07:24:15;;;;;;;4.10;2.50;;;;;;;;;;5074184;28;20448;-62
2023/12/31 07:26:41;;;;;;;5.27;3.10;;;;;;;;;;5073914;28;20558;-62
2023/12/31 07:29:08;;;;;;;3.47;2.63;;;;;;;;;;5074053;28;20439;-62
2023/12/31 07:31:36;;;;;;;6.27;2.90;;;;;;;;;;5074070;28;21032;-62
2023/12/31 07:34:03;;;;;;;4.50;4.10;;;;;;;;;;5073933;28;20450;-62
2023/12/31 07:36:32;;;;;;;9.80;4.37;;;;;;;;;;5073909;28;20982;-62
2023/12/31 07:38:59;;;;;;;2.77;2.50;;;;;;;;;;5073686;28;20998;-62
2023/12/31 07:41:25;;;;;;;4.57;3.35;;;;;;;;;;5073762;28;20457;-62
2023/12/31 07:43:52;;;;;;;4.10;3.20;;;;;;;;;;5073557;28;20193;-62
2023/12/31 07:46:19;;;;;;;2.55;2.30;;;;;;;;;;5074050;28;20447;-62
2023/12/31 07:48:46;;;;;;;2.43;2.23;;;;;;;;;;5073626;28;20672;-62
2023/12/31 07:51:13;;;;;;;3.13;2.73;;;;;;;;;;5073803;28;20450;-62
2023/12/31 07:53:41;;;;;;;5.03;2.60;;;;;;;;;;5073448;28;20534;-62
2023/12/31 07:56:08;;;;;;;2.93;2.70;;;;;;;;;;5073323;28;20533;-62
2023/12/31 07:58:35;;;;;;;2.43;2.23;;;;;;;;;;5073863;28;20483;-62
2023/12/31 08:01:03;;;;;;;2.60;2.40;;;;;;;;;;5073405;28;20443;-62
2023/12/31 08:03:30;;;;;;;3.03;2.73;;;;;;;;;;5073418;28;20443;-62
2023/12/31 08:05:57;;;;;;;3.73;2.60;;;;;;;;;;5073420;28;20538;-62
2023/12/31 08:08:24;;;;;;;4.00;2.70;;;;;;;;;;5073372;28;20494;-62
2023/12/31 08:10:52;;;;;;;3.43;2.60;;;;;;;;;;5073259;28;20447;-62
2023/12/31 08:13:19;;;;;;;3.60;2.80;;;;;;;;;;5073313;28;20444;-62
2023/12/31 08:15:46;;;;;;;5.17;2.90;;;;;;;;;;5073262;28;20449;-62
2023/12/31 08:18:13;;;;;;;5.30;2.93;;;;;;;;;;5073063;28;20950;-62
2023/12/31 08:20:40;;;;;;;2.80;2.50;;;;;;;;;;5072952;28;20450;-62
2023/12/31 08:23:07;;;;;;;4.93;3.00;;;;;;;;;;5073239;28;21014;-62
2023/12/31 08:25:34;;;;;;;4.33;3.33;;;;;;;;;;5073055;28;20574;-62
2023/12/31 08:28:02;;;;;;;3.57;3.27;;;;;;;;;;5073031;28;20443;-62
2023/12/31 08:30:29;;;;;;;3.50;2.47;;;;;;;;;;5073000;28;20482;-62
2023/12/31 08:32:56;;;;;;;2.47;2.27;;;;;;;;;;5072899;28;20980;-62
2023/12/31 08:35:25;;;;;;;5.60;2.23;;;;;;;;;;5072882;28;20450;-62
2023/12/31 08:37:52;;;;;;;5.80;2.57;;;;;;;;;;5072679;28;21021;-62
2023/12/31 08:40:20;;;;;;;2.70;2.50;;;;;;;;;;5072966;28;20447;-62
2023/12/31 08:42:46;;;;;;;3.67;2.27;;;;;;;;;;5072958;28;20595;-62
2023/12/31 08:45:15;;;;;;;3.00;2.47;;;;;;;;;;5072776;28;20447;-62
2023/12/31 08:47:42;;;;;;;3.43;2.40;;;;;;;;;;5072680;28;20541;-62
2023/12/31 08:50:09;;;;;;;3.33;2.50;;;;;;;;;;5073037;28;20447;-62
2023/12/31 08:52:37;;;;;;;4.50;2.83;;;;;;;;;;5072834;28;20444;-62
2023/12/31 08:55:05;;;;;;;3.20;2.38;;;;;;;;;;5074181;28;20467;-62
2023/12/31 08:57:32;;;;;;;3.43;2.43;;;;;;;;;;5076803;28;20220;-62
2023/12/31 08:59:59;;;;;;;4.57;2.67;;;;;;;;;;5076784;28;20534;-62
2023/12/31 09:02:27;;;;;;;3.73;2.40;;;;;;;;;;5076772;28;20781;-62
2023/12/31 09:04:54;;;;;;;4.23;2.57;;;;;;;;;;5076823;28;20454;-62
2023/12/31 09:07:21;;;;;;;3.37;2.43;;;;;;;;;;5076587;28;21010;-62
2023/12/31 09:09:48;;;;;;;3.90;2.40;;;;;;;;;;5076623;28;20542;-62
2023/12/31 09:12:14;;;;;;;3.13;2.83;;;;;;;;;;5076824;28;20802;-62
2023/12/31 09:14:41;;;;;;;6.00;2.70;;;;;;;;;;5076490;28;20451;-62
2023/12/31 09:17:08;;;;;;;3.27;2.97;;;;;;;;;;5076560;28;20469;-62
2023/12/31 09:19:37;;;;;;;3.00;2.57;;;;;;;;;;5076526;28;20450;-62
2023/12/31 09:22:04;;;;;;;2.63;1.93;;;;;;;;;;5076450;28;20486;-62
2023/12/31 09:24:32;;;;;;;2.43;2.13;;;;;;;;;;5076417;28;20534;-62
2023/12/31 09:26:59;;;;;;;2.00;1.90;;;;;;;;;;5076308;28;20946;-62
2023/12/31 09:29:26;;;;;;;2.50;2.10;;;;;;;;;;5076129;28;20451;-62
2023/12/31 09:31:53;;;;;;;2.53;2.20;;;;;;;;;;5076114;28;21048;-62
2023/12/31 09:34:20;;;;;;;2.50;2.30;;;;;;;;;;5076205;28;20530;-62
2023/12/31 09:36:48;;;;;;;5.83;2.70;;;;;;;;;;5076136;28;20450;-62
2023/12/31 09:39:15;;;;;;;3.67;2.53;;;;;;;;;;5075954;28;20475;-62
2023/12/31 09:41:43;;;;;;;6.20;2.30;;;;;;;;;;5075948;28;20443;-62
2023/12/31 09:44:11;;;;;;;6.00;2.83;;;;;;;;;;5076145;28;20443;-62
2023/12/31 09:46:39;;;;;;;3.90;1.93;;;;;;;;;;5075971;28;20836;-62
2023/12/31 09:49:06;;;;;;;3.00;2.63;;;;;;;;;;5075896;28;20681;-62
2023/12/31 09:51:33;;;;;;;2.73;2.30;;;;;;;;;;5075807;28;20531;-62
2023/12/31 09:54:06;;;;;;;4.27;2.27;;;;;;;;;;5075823;28;20534;-62
2023/12/31 09:56:33;;;;;;;2.90;2.20;;;;;;;;;;5075768;28;20475;-62
2023/12/31 09:59:00;;;;;;;4.20;2.30;;;;;;;;;;5075781;28;20482;-62
2023/12/31 10:01:29;;;;;;;6.30;2.40;;;;;;;;;;5075627;28;20973;-62
2023/12/31 10:03:56;;;;;;;5.63;2.53;;;;;;;;;;5075703;28;20534;-62
2023/12/31 10:06:23;;;;;;;2.70;2.50;;;;;;;;;;5074991;28;20447;-62
2023/12/31 10:08:52;;;;;;;2.23;2.03;;;;;;;;;;5075404;28;20546;-62
2023/12/31 10:11:20;;;;;;;3.13;2.00;;;;;;;;;;5075639;28;20448;-62
2023/12/31 10:13:47;;;;;;;2.30;2.10;;;;;;;;;;5075511;28;20637;-62
2023/12/31 10:16:14;;;;;;;2.57;2.37;;;;;;;;;;5075297;28;21018;-62
2023/12/31 10:18:41;;;;;;;4.50;2.43;;;;;;;;;;5075380;28;21038;-62
2023/12/31 10:21:09;;;;;;;2.60;2.40;;;;;;;;;;5075279;28;20531;-62
2023/12/31 10:23:36;;;;;;;2.90;2.07;;;;;;;;;;5075110;28;20516;-62
2023/12/31 10:26:03;;;;;;;3.93;1.90;;;;;;;;;;5075389;28;20452;-62
2023/12/31 10:28:31;;;;;;;2.97;2.07;;;;;;;;;;5075318;28;20447;-62
2023/12/31 10:30:58;;;;;;;2.60;2.20;;;;;;;;;;5075108;28;20538;-63
2023/12/31 10:33:28;;;;;;;3.43;2.47;;;;;;;;;;5075034;28;20443;-62
2023/12/31 10:36:03;;;;;;;2.53;2.27;;;;;;;;;;5074853;28;20448;-62
2023/12/31 10:38:30;;;;;;;3.80;2.50;;;;;;;;;;5075133;28;20487;-62
2023/12/31 10:41:08;;;;;;;3.73;2.63;;;;;;;;;;5075037;28;20493;-62
2023/12/31 10:43:37;;;;;;;2.67;2.30;;;;;;;;;;5074927;28;20526;-62
2023/12/31 10:46:04;;;;;;;2.23;2.03;;;;;;;;;;5074803;28;20577;-62
2023/12/31 10:48:33;;;;;;;3.37;2.70;;;;;;;;;;5074659;28;20450;-63
2023/12/31 10:51:02;;;;;;;2.50;2.30;;;;;;;;;;5074931;28;20539;-62
2023/12/31 10:53:31;;;;;;;4.10;2.60;;;;;;;;;;5074745;28;20470;-62
2023/12/31 10:55:58;;;;;;;6.83;3.10;;;;;;;;;;5074431;28;20555;-62
2023/12/31 10:58:25;;;;;;;3.73;2.33;;;;;;;;;;5074555;28;20475;-62
2023/12/31 11:00:54;;;;;;;4.10;2.67;;;;;;;;;;5074258;28;20533;-62
2023/12/31 11:03:21;;;;;;;3.13;2.27;;;;;;;;;;5074557;28;20471;-62
2023/12/31 11:05:48;;;;;;;3.40;2.23;;;;;;;;;;5074624;28;20544;-62
2023/12/31 11:08:16;;;;;;;3.57;2.23;;;;;;;;;;5074382;28;20546;-62
2023/12/31 11:10:42;;;;;;;4.07;2.20;;;;;;;;;;5074353;28;20447;-62
2023/12/31 11:13:10;;;;;;;3.17;2.37;;;;;;;;;;5074232;28;20891;-62
2023/12/31 11:15:37;;;;;;;4.70;2.33;;;;;;;;;;5074178;28;20505;-62
2023/12/31 11:18:32;;;;;;;5.47;2.23;;;;;;;;;;5073124;28;21025;-62
2023/12/31 11:21:18;;;;;;;3.30;2.93;;;;;;;;;;5074195;28;20440;-62
2023/12/31 11:23:47;;;;;;;3.13;2.53;;;;;;;;;;5074204;28;20793;-62
2023/12/31 11:26:14;;;;;;;3.63;2.27;;;;;;;;;;5074484;28;20455;-62
2023/12/31 11:28:48;;;;;;;4.13;2.00;;;;;;;;;;5074140;28;20451;-62
2023/12/31 11:31:15;;;;;;;2.80;2.20;;;;;;;;;;5073988;28;20449;-62
2023/12/31 11:33:45;;;;;;;2.80;2.37;;;;;;;;;;5073921;28;20809;-62
2023/12/31 11:36:12;;;;;;;3.03;2.20;;;;;;;;;;5073762;28;20534;-62
2023/12/31 11:38:52;;;;;;;2.43;2.07;;;;;;;;;;5073593;28;20479;-62
2023/12/31 11:41:19;;;;;;;2.43;2.23;;;;;;;;;;5073616;28;20943;-62
2023/12/31 11:43:46;;;;;;;2.13;1.90;;;;;;;;;;5073555;28;20946;-62
2023/12/31 11:46:31;;;;;;;2.90;2.17;;;;;;;;;;5073954;28;20450;-62
2023/12/31 11:48:59;;;;;;;2.37;2.17;;;;;;;;;;5073530;28;20454;-62
2023/12/31 11:51:29;;;;;;;3.10;2.90;;;;;;;;;;5073736;28;20550;-62
2023/12/31 11:53:58;;;;;;;2.30;2.10;;;;;;;;;;5073576;28;20459;-62
2023/12/31 11:56:27;;;;;;;2.40;2.20;;;;;;;;;;5073518;28;20499;-62
2023/12/31 11:58:55;;;;;;;3.30;2.63;;;;;;;;;;5073335;28;20490;-62
2023/12/31 12:01:22;;;;;;;2.77;2.50;;;;;;;;;;5073251;28;20934;-62
2023/12/31 12:03:49;;;;;;;3.10;2.57;;;;;;;;;;5073265;28;20938;-62
2023/12/31 12:06:18;;;;;;;2.80;2.03;;;;;;;;;;5073496;28;20475;-62
2023/12/31 12:08:44;;;;;;;2.77;2.37;;;;;;;;;;5073274;28;20454;-62
2023/12/31 12:11:12;;;;;;;3.00;2.70;;;;;;;;;;5073286;28;20534;-62
2023/12/31 12:13:39;;;;;;;3.33;2.10;;;;;;;;;;5073140;28;20444;-62
2023/12/31 12:16:06;;;;;;;3.53;2.40;;;;;;;;;;5072958;28;20562;-62
2023/12/31 12:18:33;;;;;;;3.27;2.10;;;;;;;;;;5073261;28;20982;-62
2023/12/31 12:21:00;;;;;;;4.27;2.90;;;;;;;;;;5073212;28;20467;-62
2023/12/31 12:23:28;;;;;;;5.70;3.53;;;;;;;;;;5073272;28;20439;-62
2023/12/31 12:25:58;;;;;;;4.57;4.17;;;;;;;;;;5073032;28;20534;-62
2023/12/31 12:28:26;;;;;;;4.30;2.90;;;;;;;;;;5072694;28;20550;-62
2023/12/31 12:30:53;;;;;;;8.93;2.77;;;;;;;;;;5073162;28;20471;-62
2023/12/31 12:33:20;;;;;;;2.90;2.67;;;;;;;;;;5073036;28;20483;-62
2023/12/31 12:35:48;;;;;;;3.97;2.23;;;;;;;;;;5072959;28;20537;-63
2023/12/31 12:38:15;;;;;;;3.50;2.57;;;;;;;;;;5072793;28;20447;-62
2023/12/31 12:40:43;;;;;;;6.67;2.60;;;;;;;;;;5072864;28;20457;-62
2023/12/31 12:43:13;;;;;;;2.13;1.90;;;;;;;;;;5072744;28;20448;-63
2023/12/31 12:45:40;;;;;;;2.70;2.10;;;;;;;;;;5073050;28;20526;-62
2023/12/31 12:48:08;;;;;;;3.77;2.60;;;;;;;;;;5072754;28;20879;-62
2023/12/31 12:50:35;;;;;;;2.67;2.30;;;;;;;;;;5072512;28;20486;-62
2023/12/31 12:53:02;;;;;;;2.83;2.50;;;;;;;;;;5072755;28;20447;-62
2023/12/31 12:55:29;;;;;;;2.70;2.50;;;;;;;;;;5072381;28;20550;-62
2023/12/31 12:57:57;;;;;;;3.50;2.17;;;;;;;;;;5072633;28;20939;-62
2023/12/31 13:00:24;;;;;;;2.37;2.10;;;;;;;;;;5072779;28;20983;-62
2023/12/31 13:02:51;;;;;;;3.93;3.03;;;;;;;;;;5072769;28;20803;-62
2023/12/31 13:05:18;;;;;;;3.77;1.90;;;;;;;;;;5072597;28;20526;-62
2023/12/31 13:07:45;;;;;;;3.37;2.30;;;;;;;;;;5072651;28;20439;-62
2023/12/31 13:10:12;;;;;;;4.60;2.43;;;;;;;;;;5072498;28;20451;-62
2023/12/31 13:12:39;;;;;;;2.80;2.60;;;;;;;;;;5072654;28;20439;-62
2023/12/31 13:15:08;;;;;;;2.90;2.60;;;;;;;;;;5072668;28;20538;-62
2023/12/31 13:17:35;;;;;;;4.93;2.40;;;;;;;;;;5072589;28;20530;-62
2023/12/31 13:20:03;;;;;;;2.40;2.20;;;;;;;;;;5072387;28;20974;-62
2023/12/31 13:22:31;;;;;;;3.30;2.53;;;;;;;;;;5072448;28;20444;-62
2023/12/31 13:24:58;;;;;;;2.23;2.03;;;;;;;;;;5072678;28;20949;-62
2023/12/31 13:27:26;;;;;;;5.67;3.60;;;;;;;;;;5072633;28;20512;-62
2023/12/31 13:29:53;;;;;;;8.37;2.77;;;;;;;;;;5072334;28;20448;-62
2023/12/31 13:32:21;;;;;;;7.97;3.73;;;;;;;;;;5072422;28;20471;-62
2023/12/31 13:34:48;;;;;;;8.90;3.67;;;;;;;;;;5072286;28;20543;-62
2023/12/31 13:37:15;;;;;;;3.90;2.70;;;;;;;;;;5072453;28;20462;-62
2023/12/31 13:39:43;;;;;;;10.90;4.17;;;;;;;;;;5072507;28;20479;-62
2023/12/31 13:42:10;;;;;;;7.40;4.00;;;;;;;;;;5075441;28;20489;-62
2023/12/31 13:44:37;;;;;;;7.60;4.17;;;;;;;;;;5076013;28;20829;-62
2023/12/31 13:47:05;;;;;;;6.43;4.13;;;;;;;;;;5076220;28;20469;-62
2023/12/31 13:49:33;;;;;;;8.57;3.90;;;;;;;;;;5075818;28;20534;-62
2023/12/31 13:52:00;;;;;;;8.63;4.10;;;;;;;;;;5075982;28;20452;-62
2023/12/31 13:54:27;;;;;;;5.60;4.00;;;;;;;;;;5075782;28;21026;-62
2023/12/31 13:56:54;;;;;;;9.07;4.20;;;;;;;;;;5075845;28;20534;-62
2023/12/31 13:59:20;;;;;;;7.23;3.60;;;;;;;;;;5075560;28;20562;-62
2023/12/31 14:01:47;;;;;;;3.87;3.27;;;;;;;;;;5075646;28;20550;-62
2023/12/31 14:04:14;;;;;;;7.40;2.87;;;;;;;;;;5075532;28;20493;-62
2023/12/31 14:06:45;;;;;;;2.67;2.47;;;;;;;;;;5075661;28;20455;-62
2023/12/31 14:09:12;;;;;;;3.43;2.90;;;;;;;;;;5075669;28;20491;-62
2023/12/31 14:11:40;;;;;;;3.50;3.10;;;;;;;;;;5075388;28;20447;-62
2023/12/31 14:14:08;;;;;;;4.23;3.50;;;;;;;;;;5075443;28;20483;-62
2023/12/31 14:16:37;;;;;;;6.17;3.37;;;;;;;;;;5075407;28;20962;-62
2023/12/31 14:19:05;;;;;;;5.33;3.03;;;;;;;;;;5075269;28;20503;-62
2023/12/31 14:21:32;;;;;;;3.37;2.30;;;;;;;;;;5075223;28;20989;-62
2023/12/31 14:24:00;;;;;;;3.30;3.00;;;;;;;;;;5075391;28;20538;-62
2023/12/31 14:26:27;;;;;;;10.00;3.10;;;;;;;;;;5075309;28;20486;-63
2023/12/31 14:28:54;;;;;;;3.60;2.80;;;;;;;;;;5075191;28;20443;-62
2023/12/31 14:31:21;;;;;;;5.30;3.40;;;;;;;;;;5075087;28;20443;-63
2023/12/31 14:33:48;;;;;;;5.57;3.50;;;;;;;;;;5075307;28;21003;-62
2023/12/31 14:36:15;;;;;;;4.07;3.40;;;;;;;;;;5075341;28;20534;-62
2023/12/31 14:38:42;;;;;;;3.97;3.30;;;;;;;;;;5075040;28;20855;-62
2023/12/31 14:41:10;;;;;;;5.53;3.83;;;;;;;;;;5075243;28;20487;-62
2023/12/31 14:43:37;;;;;;;4.73;2.87;;;;;;;;;;5075008;28;20444;-62
2023/12/31 14:46:04;;;;;;;3.23;2.43;;;;;;;;;;5074650;28;20440;-62